sensor_id;sensor_type;location;lat;lon;timestamp;P1;durP1;ratioP1;P2;durP2;ratioP2
48199;SDS011;33990;44.602;10.976;2023-08-24T00:00:51;5.63;;;5.03;;
48199;SDS011;33990;44.602;10.976;2023-08-24T00:03:19;7.20;;;6.25;;
48199;SDS011;33990;44.602;10.976;2023-08-24T00:05:48;7.13;;;5.47;;
48199;SDS011;33990;44.602;10.976;2023-08-24T00:08:16;6.55;;;5.82;;
48199;SDS011;33990;44.602;10.976;2023-08-24T00:10:44;6.30;;;5.47;;
48199;SDS011;33990;44.602;10.976;2023-08-24T00:13:13;6.72;;;6.03;;
48199;SDS011;33990;44.602;10.976;2023-08-24T00:15:41;7.18;;;6.28;;
48199;SDS011;33990;44.602;10.976;2023-08-24T00:18:09;5.75;;;5.20;;
48199;SDS011;33990;44.602;10.976;2023-08-24T00:20:36;6.45;;;5.75;;
48199;SDS011;33990;44.602;10.976;2023-08-24T00:23:04;5.55;;;5.05;;
48199;SDS011;33990;44.602;10.976;2023-08-24T00:25:31;6.38;;;5.55;;
48199;SDS011;33990;44.602;10.976;2023-08-24T00:27:59;7.75;;;5.35;;
48199;SDS011;33990;44.602;10.976;2023-08-24T00:30:26;8.07;;;5.72;;
48199;SDS011;33990;44.602;10.976;2023-08-24T00:32:54;5.97;;;5.38;;
48199;SDS011;33990;44.602;10.976;2023-08-24T00:35:21;7.47;;;5.82;;
48199;SDS011;33990;44.602;10.976;2023-08-24T00:37:51;6.53;;;5.57;;
48199;SDS011;33990;44.602;10.976;2023-08-24T00:40:18;5.45;;;4.95;;
48199;SDS011;33990;44.602;10.976;2023-08-24T00:42:46;6.40;;;5.45;;
48199;SDS011;33990;44.602;10.976;2023-08-24T00:45:13;7.55;;;5.15;;
48199;SDS011;33990;44.602;10.976;2023-08-24T00:47:44;5.72;;;5.05;;
48199;SDS011;33990;44.602;10.976;2023-08-24T00:50:13;6.80;;;6.10;;
48199;SDS011;33990;44.602;10.976;2023-08-24T00:52:41;7.00;;;5.68;;
48199;SDS011;33990;44.602;10.976;2023-08-24T00:55:09;5.93;;;5.32;;
48199;SDS011;33990;44.602;10.976;2023-08-24T00:57:37;7.30;;;5.45;;
48199;SDS011;33990;44.602;10.976;2023-08-24T01:00:05;7.55;;;5.47;;
48199;SDS011;33990;44.602;10.976;2023-08-24T01:02:40;6.80;;;5.45;;
48199;SDS011;33990;44.602;10.976;2023-08-24T01:05:07;5.65;;;5.03;;
48199;SDS011;33990;44.602;10.976;2023-08-24T01:07:35;5.40;;;4.80;;
48199;SDS011;33990;44.602;10.976;2023-08-24T01:10:07;5.77;;;5.20;;
48199;SDS011;33990;44.602;10.976;2023-08-24T01:18:00;6.25;;;5.63;;
48199;SDS011;33990;44.602;10.976;2023-08-24T01:20:31;5.15;;;4.65;;
48199;SDS011;33990;44.602;10.976;2023-08-24T01:23:14;7.10;;;6.40;;
48199;SDS011;33990;44.602;10.976;2023-08-24T01:28:31;7.15;;;5.45;;
48199;SDS011;33990;44.602;10.976;2023-08-24T01:31:00;5.80;;;5.20;;
48199;SDS011;33990;44.602;10.976;2023-08-24T01:33:27;5.82;;;5.20;;
48199;SDS011;33990;44.602;10.976;2023-08-24T01:35:54;6.07;;;5.47;;
48199;SDS011;33990;44.602;10.976;2023-08-24T01:38:22;8.05;;;5.40;;
48199;SDS011;33990;44.602;10.976;2023-08-24T01:40:59;5.35;;;4.85;;
48199;SDS011;33990;44.602;10.976;2023-08-24T01:43:40;7.07;;;5.15;;
48199;SDS011;33990;44.602;10.976;2023-08-24T01:46:11;5.30;;;4.80;;
48199;SDS011;33990;44.602;10.976;2023-08-24T01:48:42;6.80;;;5.00;;
48199;SDS011;33990;44.602;10.976;2023-08-24T01:51:11;7.05;;;5.57;;
48199;SDS011;33990;44.602;10.976;2023-08-24T01:53:40;6.80;;;5.30;;
48199;SDS011;33990;44.602;10.976;2023-08-24T01:56:11;6.13;;;5.53;;
48199;SDS011;33990;44.602;10.976;2023-08-24T01:58:40;6.07;;;4.55;;
48199;SDS011;33990;44.602;10.976;2023-08-24T02:01:07;8.52;;;5.30;;
48199;SDS011;33990;44.602;10.976;2023-08-24T02:03:35;6.00;;;4.95;;
48199;SDS011;33990;44.602;10.976;2023-08-24T02:06:03;6.18;;;4.95;;
48199;SDS011;33990;44.602;10.976;2023-08-24T02:08:32;6.22;;;5.63;;
48199;SDS011;33990;44.602;10.976;2023-08-24T02:10:59;6.05;;;5.38;;
48199;SDS011;33990;44.602;10.976;2023-08-24T02:13:27;5.80;;;5.05;;
48199;SDS011;33990;44.602;10.976;2023-08-24T02:16:28;5.70;;;5.00;;
48199;SDS011;33990;44.602;10.976;2023-08-24T02:18:48;7.93;;;5.63;;
48199;SDS011;33990;44.602;10.976;2023-08-24T02:21:15;6.30;;;5.63;;
48199;SDS011;33990;44.602;10.976;2023-08-24T02:23:43;6.07;;;5.38;;
48199;SDS011;33990;44.602;10.976;2023-08-24T02:26:10;5.57;;;4.97;;
48199;SDS011;33990;44.602;10.976;2023-08-24T02:28:37;6.07;;;5.40;;
48199;SDS011;33990;44.602;10.976;2023-08-24T02:31:05;6.63;;;5.55;;
48199;SDS011;33990;44.602;10.976;2023-08-24T02:33:33;5.75;;;4.80;;
48199;SDS011;33990;44.602;10.976;2023-08-24T02:36:00;6.32;;;5.35;;
48199;SDS011;33990;44.602;10.976;2023-08-24T02:38:28;6.32;;;5.72;;
48199;SDS011;33990;44.602;10.976;2023-08-24T02:41:06;6.05;;;5.45;;
48199;SDS011;33990;44.602;10.976;2023-08-24T02:43:34;5.75;;;5.15;;
48199;SDS011;33990;44.602;10.976;2023-08-24T02:46:04;6.18;;;5.20;;
48199;SDS011;33990;44.602;10.976;2023-08-24T02:48:32;6.22;;;5.63;;
48199;SDS011;33990;44.602;10.976;2023-08-24T02:51:02;6.55;;;5.85;;
48199;SDS011;33990;44.602;10.976;2023-08-24T02:53:31;6.20;;;5.00;;
48199;SDS011;33990;44.602;10.976;2023-08-24T02:56:00;6.18;;;4.95;;
48199;SDS011;33990;44.602;10.976;2023-08-24T02:58:28;8.32;;;6.38;;
48199;SDS011;33990;44.602;10.976;2023-08-24T03:00:56;7.15;;;5.13;;
48199;SDS011;33990;44.602;10.976;2023-08-24T03:03:23;6.30;;;5.45;;
48199;SDS011;33990;44.602;10.976;2023-08-24T03:08:23;6.18;;;5.40;;
48199;SDS011;33990;44.602;10.976;2023-08-24T03:10:52;7.65;;;6.55;;
48199;SDS011;33990;44.602;10.976;2023-08-24T03:13:19;5.97;;;4.75;;
48199;SDS011;33990;44.602;10.976;2023-08-24T03:15:47;5.80;;;5.20;;
48199;SDS011;33990;44.602;10.976;2023-08-24T03:18:15;6.97;;;5.60;;
48199;SDS011;33990;44.602;10.976;2023-08-24T03:20:44;6.68;;;5.25;;
48199;SDS011;33990;44.602;10.976;2023-08-24T03:23:15;6.45;;;5.40;;
48199;SDS011;33990;44.602;10.976;2023-08-24T03:25:43;6.28;;;5.60;;
48199;SDS011;33990;44.602;10.976;2023-08-24T03:28:11;5.80;;;5.20;;
48199;SDS011;33990;44.602;10.976;2023-08-24T03:30:39;5.90;;;4.68;;
48199;SDS011;33990;44.602;10.976;2023-08-24T03:33:13;5.03;;;4.53;;
48199;SDS011;33990;44.602;10.976;2023-08-24T03:35:40;5.90;;;5.32;;
48199;SDS011;33990;44.602;10.976;2023-08-24T03:38:08;5.88;;;5.07;;
48199;SDS011;33990;44.602;10.976;2023-08-24T03:40:35;6.47;;;5.55;;
48199;SDS011;33990;44.602;10.976;2023-08-24T03:43:04;5.57;;;5.07;;
48199;SDS011;33990;44.602;10.976;2023-08-24T03:45:31;7.00;;;5.60;;
48199;SDS011;33990;44.602;10.976;2023-08-24T03:47:59;6.25;;;5.63;;
48199;SDS011;33990;44.602;10.976;2023-08-24T03:50:26;5.90;;;5.28;;
48199;SDS011;33990;44.602;10.976;2023-08-24T03:52:53;6.13;;;5.53;;
48199;SDS011;33990;44.602;10.976;2023-08-24T03:55:21;6.38;;;5.30;;
48199;SDS011;33990;44.602;10.976;2023-08-24T03:57:50;6.32;;;5.70;;
48199;SDS011;33990;44.602;10.976;2023-08-24T04:00:18;6.95;;;5.80;;
48199;SDS011;33990;44.602;10.976;2023-08-24T04:02:45;6.60;;;5.53;;
48199;SDS011;33990;44.602;10.976;2023-08-24T04:05:20;6.57;;;5.90;;
48199;SDS011;33990;44.602;10.976;2023-08-24T04:07:48;7.75;;;6.03;;
48199;SDS011;33990;44.602;10.976;2023-08-24T04:10:16;6.30;;;5.60;;
48199;SDS011;33990;44.602;10.976;2023-08-24T04:12:43;6.13;;;5.53;;
48199;SDS011;33990;44.602;10.976;2023-08-24T04:15:10;7.40;;;6.63;;
48199;SDS011;33990;44.602;10.976;2023-08-24T04:17:38;7.28;;;5.72;;
48199;SDS011;33990;44.602;10.976;2023-08-24T04:20:09;6.40;;;5.53;;
48199;SDS011;33990;44.602;10.976;2023-08-24T04:22:37;6.80;;;5.40;;
48199;SDS011;33990;44.602;10.976;2023-08-24T04:25:05;6.85;;;5.95;;
48199;SDS011;33990;44.602;10.976;2023-08-24T04:27:33;6.63;;;5.93;;
48199;SDS011;33990;44.602;10.976;2023-08-24T04:30:00;6.63;;;5.93;;
48199;SDS011;33990;44.602;10.976;2023-08-24T04:32:28;6.20;;;5.63;;
48199;SDS011;33990;44.602;10.976;2023-08-24T04:34:56;7.32;;;5.78;;
48199;SDS011;33990;44.602;10.976;2023-08-24T04:37:23;6.30;;;5.70;;
48199;SDS011;33990;44.602;10.976;2023-08-24T04:39:50;6.53;;;5.90;;
48199;SDS011;33990;44.602;10.976;2023-08-24T04:42:18;6.80;;;6.07;;
48199;SDS011;33990;44.602;10.976;2023-08-24T04:44:45;6.35;;;5.75;;
48199;SDS011;33990;44.602;10.976;2023-08-24T04:47:12;7.63;;;6.00;;
48199;SDS011;33990;44.602;10.976;2023-08-24T04:49:40;6.18;;;5.57;;
48199;SDS011;33990;44.602;10.976;2023-08-24T04:52:07;6.93;;;6.20;;
48199;SDS011;33990;44.602;10.976;2023-08-24T04:54:34;6.32;;;5.72;;
48199;SDS011;33990;44.602;10.976;2023-08-24T04:57:02;7.10;;;6.40;;
48199;SDS011;33990;44.602;10.976;2023-08-24T04:59:29;6.60;;;5.85;;
48199;SDS011;33990;44.602;10.976;2023-08-24T05:01:56;6.97;;;6.28;;
48199;SDS011;33990;44.602;10.976;2023-08-24T05:04:24;7.00;;;5.97;;
48199;SDS011;33990;44.602;10.976;2023-08-24T05:06:51;7.57;;;5.82;;
48199;SDS011;33990;44.602;10.976;2023-08-24T05:09:19;6.78;;;6.07;;
48199;SDS011;33990;44.602;10.976;2023-08-24T05:11:46;7.20;;;6.38;;
48199;SDS011;33990;44.602;10.976;2023-08-24T05:14:14;7.85;;;6.20;;
48199;SDS011;33990;44.602;10.976;2023-08-24T05:16:41;7.65;;;6.03;;
48199;SDS011;33990;44.602;10.976;2023-08-24T05:19:08;6.55;;;5.82;;
48199;SDS011;33990;44.602;10.976;2023-08-24T05:21:36;7.07;;;6.32;;
48199;SDS011;33990;44.602;10.976;2023-08-24T05:24:03;5.75;;;5.05;;
48199;SDS011;33990;44.602;10.976;2023-08-24T05:26:31;6.10;;;5.50;;
48199;SDS011;33990;44.602;10.976;2023-08-24T05:28:58;6.60;;;5.93;;
48199;SDS011;33990;44.602;10.976;2023-08-24T05:31:26;6.30;;;5.40;;
48199;SDS011;33990;44.602;10.976;2023-08-24T05:33:53;7.53;;;5.95;;
48199;SDS011;33990;44.602;10.976;2023-08-24T05:36:20;6.13;;;5.60;;
48199;SDS011;33990;44.602;10.976;2023-08-24T05:38:48;6.60;;;5.90;;
48199;SDS011;33990;44.602;10.976;2023-08-24T05:41:18;6.13;;;5.53;;
48199;SDS011;33990;44.602;10.976;2023-08-24T05:43:45;6.22;;;5.53;;
48199;SDS011;33990;44.602;10.976;2023-08-24T05:46:13;5.90;;;5.25;;
48199;SDS011;33990;44.602;10.976;2023-08-24T05:48:40;6.13;;;5.53;;
48199;SDS011;33990;44.602;10.976;2023-08-24T05:51:07;7.15;;;5.20;;
48199;SDS011;33990;44.602;10.976;2023-08-24T05:53:36;5.85;;;5.25;;
48199;SDS011;33990;44.602;10.976;2023-08-24T05:56:05;6.70;;;5.22;;
48199;SDS011;33990;44.602;10.976;2023-08-24T05:58:32;8.30;;;6.05;;
48199;SDS011;33990;44.602;10.976;2023-08-24T06:01:00;7.72;;;5.60;;
48199;SDS011;33990;44.602;10.976;2023-08-24T06:03:27;6.47;;;5.30;;
48199;SDS011;33990;44.602;10.976;2023-08-24T06:06:00;6.90;;;5.65;;
48199;SDS011;33990;44.602;10.976;2023-08-24T06:08:29;6.07;;;5.47;;
48199;SDS011;33990;44.602;10.976;2023-08-24T06:10:57;6.35;;;5.22;;
48199;SDS011;33990;44.602;10.976;2023-08-24T06:13:25;5.88;;;5.25;;
48199;SDS011;33990;44.602;10.976;2023-08-24T06:15:53;6.45;;;5.35;;
48199;SDS011;33990;44.602;10.976;2023-08-24T06:18:21;5.22;;;4.72;;
48199;SDS011;33990;44.602;10.976;2023-08-24T06:20:49;6.20;;;5.25;;
48199;SDS011;33990;44.602;10.976;2023-08-24T06:23:16;6.40;;;5.72;;
48199;SDS011;33990;44.602;10.976;2023-08-24T06:25:44;6.15;;;5.10;;
48199;SDS011;33990;44.602;10.976;2023-08-24T06:28:12;5.97;;;5.15;;
48199;SDS011;33990;44.602;10.976;2023-08-24T06:30:40;7.05;;;5.25;;
48199;SDS011;33990;44.602;10.976;2023-08-24T06:33:10;6.47;;;5.00;;
48199;SDS011;33990;44.602;10.976;2023-08-24T06:35:40;7.55;;;5.40;;
48199;SDS011;33990;44.602;10.976;2023-08-24T06:38:07;7.07;;;5.15;;
48199;SDS011;33990;44.602;10.976;2023-08-24T06:40:35;8.15;;;5.90;;
48199;SDS011;33990;44.602;10.976;2023-08-24T06:43:02;7.78;;;5.30;;
48199;SDS011;33990;44.602;10.976;2023-08-24T06:45:31;7.15;;;5.25;;
48199;SDS011;33990;44.602;10.976;2023-08-24T06:47:58;5.80;;;5.20;;
48199;SDS011;33990;44.602;10.976;2023-08-24T06:50:26;7.00;;;5.97;;
48199;SDS011;33990;44.602;10.976;2023-08-24T06:52:53;6.53;;;5.30;;
48199;SDS011;33990;44.602;10.976;2023-08-24T06:55:21;7.28;;;5.93;;
48199;SDS011;33990;44.602;10.976;2023-08-24T06:57:48;5.90;;;5.30;;
48199;SDS011;33990;44.602;10.976;2023-08-24T07:00:19;5.97;;;5.20;;
48199;SDS011;33990;44.602;10.976;2023-08-24T07:02:51;5.18;;;4.78;;
48199;SDS011;33990;44.602;10.976;2023-08-24T07:05:18;7.18;;;5.65;;
48199;SDS011;33990;44.602;10.976;2023-08-24T07:07:46;7.20;;;5.22;;
48199;SDS011;33990;44.602;10.976;2023-08-24T07:10:16;5.95;;;5.25;;
48199;SDS011;33990;44.602;10.976;2023-08-24T07:12:44;6.22;;;5.63;;
48199;SDS011;33990;44.602;10.976;2023-08-24T07:15:12;7.15;;;5.78;;
48199;SDS011;33990;44.602;10.976;2023-08-24T07:17:40;7.43;;;5.28;;
48199;SDS011;33990;44.602;10.976;2023-08-24T07:20:08;6.55;;;5.30;;
48199;SDS011;33990;44.602;10.976;2023-08-24T07:22:36;6.57;;;5.95;;
48199;SDS011;33990;44.602;10.976;2023-08-24T07:25:04;6.10;;;5.50;;
48199;SDS011;33990;44.602;10.976;2023-08-24T07:27:33;6.32;;;5.38;;
48199;SDS011;33990;44.602;10.976;2023-08-24T07:30:01;6.25;;;5.50;;
48199;SDS011;33990;44.602;10.976;2023-08-24T07:32:48;6.05;;;5.45;;
48199;SDS011;33990;44.602;10.976;2023-08-24T07:35:15;7.28;;;5.95;;
48199;SDS011;33990;44.602;10.976;2023-08-24T07:37:43;5.90;;;4.93;;
48199;SDS011;33990;44.602;10.976;2023-08-24T07:40:10;6.47;;;5.57;;
48199;SDS011;33990;44.602;10.976;2023-08-24T07:42:45;5.78;;;5.18;;
48199;SDS011;33990;44.602;10.976;2023-08-24T07:45:14;5.00;;;4.50;;
48199;SDS011;33990;44.602;10.976;2023-08-24T07:47:42;6.90;;;5.50;;
48199;SDS011;33990;44.602;10.976;2023-08-24T07:50:10;7.20;;;5.55;;
48199;SDS011;33990;44.602;10.976;2023-08-24T07:52:38;6.50;;;5.40;;
48199;SDS011;33990;44.602;10.976;2023-08-24T07:55:07;5.05;;;4.20;;
48199;SDS011;33990;44.602;10.976;2023-08-24T07:57:35;5.60;;;4.93;;
48199;SDS011;33990;44.602;10.976;2023-08-24T08:00:04;5.32;;;4.78;;
48199;SDS011;33990;44.602;10.976;2023-08-24T08:02:41;7.85;;;5.63;;
48199;SDS011;33990;44.602;10.976;2023-08-24T08:05:09;5.47;;;4.85;;
48199;SDS011;33990;44.602;10.976;2023-08-24T08:07:39;5.80;;;4.82;;
48199;SDS011;33990;44.602;10.976;2023-08-24T08:10:07;8.65;;;6.30;;
48199;SDS011;33990;44.602;10.976;2023-08-24T08:12:35;9.70;;;6.25;;
48199;SDS011;33990;44.602;10.976;2023-08-24T08:15:02;7.60;;;5.15;;
48199;SDS011;33990;44.602;10.976;2023-08-24T08:17:31;7.80;;;5.78;;
48199;SDS011;33990;44.602;10.976;2023-08-24T08:20:00;7.75;;;5.38;;
48199;SDS011;33990;44.602;10.976;2023-08-24T08:22:27;6.68;;;6.00;;
48199;SDS011;33990;44.602;10.976;2023-08-24T08:24:55;7.20;;;6.35;;
48199;SDS011;33990;44.602;10.976;2023-08-24T08:27:23;7.22;;;5.28;;
48199;SDS011;33990;44.602;10.976;2023-08-24T08:29:50;6.85;;;6.15;;
48199;SDS011;33990;44.602;10.976;2023-08-24T08:32:18;7.65;;;5.35;;
48199;SDS011;33990;44.602;10.976;2023-08-24T08:34:46;7.38;;;6.22;;
48199;SDS011;33990;44.602;10.976;2023-08-24T08:37:13;7.47;;;5.80;;
48199;SDS011;33990;44.602;10.976;2023-08-24T08:39:40;8.00;;;5.88;;
48199;SDS011;33990;44.602;10.976;2023-08-24T08:42:11;6.90;;;5.93;;
48199;SDS011;33990;44.602;10.976;2023-08-24T08:44:41;8.57;;;6.72;;
48199;SDS011;33990;44.602;10.976;2023-08-24T08:47:13;7.70;;;5.93;;
48199;SDS011;33990;44.602;10.976;2023-08-24T08:49:42;7.40;;;5.83;;
48199;SDS011;33990;44.602;10.976;2023-08-24T08:52:10;7.20;;;6.03;;
48199;SDS011;33990;44.602;10.976;2023-08-24T08:54:38;11.32;;;6.82;;
48199;SDS011;33990;44.602;10.976;2023-08-24T08:57:07;8.02;;;5.82;;
48199;SDS011;33990;44.602;10.976;2023-08-24T08:59:34;7.18;;;6.47;;
48199;SDS011;33990;44.602;10.976;2023-08-24T09:02:02;7.07;;;6.38;;
48199;SDS011;33990;44.602;10.976;2023-08-24T09:04:31;8.70;;;7.00;;
48199;SDS011;33990;44.602;10.976;2023-08-24T09:06:59;7.13;;;6.43;;
48199;SDS011;33990;44.602;10.976;2023-08-24T09:09:34;6.95;;;6.22;;
48199;SDS011;33990;44.602;10.976;2023-08-24T09:12:03;6.90;;;6.20;;
48199;SDS011;33990;44.602;10.976;2023-08-24T09:14:32;7.07;;;6.15;;
48199;SDS011;33990;44.602;10.976;2023-08-24T09:17:00;6.78;;;6.07;;
48199;SDS011;33990;44.602;10.976;2023-08-24T09:19:28;7.75;;;6.03;;
48199;SDS011;33990;44.602;10.976;2023-08-24T09:21:57;7.57;;;6.53;;
48199;SDS011;33990;44.602;10.976;2023-08-24T09:24:29;7.65;;;6.72;;
48199;SDS011;33990;44.602;10.976;2023-08-24T09:27:00;6.80;;;6.18;;
48199;SDS011;33990;44.602;10.976;2023-08-24T09:29:48;6.93;;;5.90;;
48199;SDS011;33990;44.602;10.976;2023-08-24T09:32:23;7.35;;;6.40;;
48199;SDS011;33990;44.602;10.976;2023-08-24T09:34:51;7.18;;;6.47;;
48199;SDS011;33990;44.602;10.976;2023-08-24T09:37:19;8.02;;;6.78;;
48199;SDS011;33990;44.602;10.976;2023-08-24T09:39:47;6.88;;;6.10;;
48199;SDS011;33990;44.602;10.976;2023-08-24T09:42:15;7.10;;;5.95;;
48199;SDS011;33990;44.602;10.976;2023-08-24T09:44:59;7.45;;;5.82;;
48199;SDS011;33990;44.602;10.976;2023-08-24T09:47:33;8.02;;;6.10;;
48199;SDS011;33990;44.602;10.976;2023-08-24T09:50:00;6.70;;;6.00;;
48199;SDS011;33990;44.602;10.976;2023-08-24T09:52:29;6.50;;;5.85;;
48199;SDS011;33990;44.602;10.976;2023-08-24T09:55:02;7.22;;;6.10;;
48199;SDS011;33990;44.602;10.976;2023-08-24T09:57:38;5.93;;;5.32;;
48199;SDS011;33990;44.602;10.976;2023-08-24T10:00:07;7.93;;;6.07;;
48199;SDS011;33990;44.602;10.976;2023-08-24T10:02:51;7.82;;;6.10;;
48199;SDS011;33990;44.602;10.976;2023-08-24T10:05:23;7.10;;;5.90;;
48199;SDS011;33990;44.602;10.976;2023-08-24T10:08:09;7.80;;;5.88;;
48199;SDS011;33990;44.602;10.976;2023-08-24T10:10:38;7.28;;;5.80;;
48199;SDS011;33990;44.602;10.976;2023-08-24T10:13:11;6.88;;;6.18;;
48199;SDS011;33990;44.602;10.976;2023-08-24T10:15:45;5.68;;;5.00;;
48199;SDS011;33990;44.602;10.976;2023-08-24T10:18:17;8.43;;;5.63;;
48199;SDS011;33990;44.602;10.976;2023-08-24T10:20:46;6.40;;;5.80;;
48199;SDS011;33990;44.602;10.976;2023-08-24T10:23:15;5.65;;;5.15;;
48199;SDS011;33990;44.602;10.976;2023-08-24T10:25:43;7.30;;;5.63;;
48199;SDS011;33990;44.602;10.976;2023-08-24T10:28:13;7.63;;;6.35;;
48199;SDS011;33990;44.602;10.976;2023-08-24T10:30:43;6.43;;;5.80;;
48199;SDS011;33990;44.602;10.976;2023-08-24T10:33:13;7.13;;;5.60;;
48199;SDS011;33990;44.602;10.976;2023-08-24T10:35:42;6.72;;;5.80;;
48199;SDS011;33990;44.602;10.976;2023-08-24T10:38:22;5.85;;;5.35;;
48199;SDS011;33990;44.602;10.976;2023-08-24T10:40:54;6.50;;;5.15;;
48199;SDS011;33990;44.602;10.976;2023-08-24T10:43:28;6.55;;;5.88;;
48199;SDS011;33990;44.602;10.976;2023-08-24T10:45:56;8.07;;;5.97;;
48199;SDS011;33990;44.602;10.976;2023-08-24T10:48:28;5.82;;;5.18;;
48199;SDS011;33990;44.602;10.976;2023-08-24T10:54:02;5.78;;;5.20;;
48199;SDS011;33990;44.602;10.976;2023-08-24T10:56:35;5.45;;;4.80;;
48199;SDS011;33990;44.602;10.976;2023-08-24T10:59:13;6.15;;;5.55;;
48199;SDS011;33990;44.602;10.976;2023-08-24T11:01:56;6.22;;;5.63;;
48199;SDS011;33990;44.602;10.976;2023-08-24T11:04:25;6.65;;;5.47;;
48199;SDS011;33990;44.602;10.976;2023-08-24T11:06:56;7.32;;;5.93;;
48199;SDS011;33990;44.602;10.976;2023-08-24T11:09:47;6.47;;;5.20;;
48199;SDS011;33990;44.602;10.976;2023-08-24T11:12:15;7.60;;;5.75;;
48199;SDS011;33990;44.602;10.976;2023-08-24T11:14:49;5.32;;;4.82;;
48199;SDS011;33990;44.602;10.976;2023-08-24T11:17:25;7.28;;;6.07;;
48199;SDS011;33990;44.602;10.976;2023-08-24T11:20:00;6.70;;;5.30;;
48199;SDS011;33990;44.602;10.976;2023-08-24T11:24:58;6.00;;;5.43;;
48199;SDS011;33990;44.602;10.976;2023-08-24T11:27:27;7.60;;;5.35;;
48199;SDS011;33990;44.602;10.976;2023-08-24T11:29:58;6.32;;;5.40;;
48199;SDS011;33990;44.602;10.976;2023-08-24T11:32:30;8.32;;;6.25;;
48199;SDS011;33990;44.602;10.976;2023-08-24T11:34:57;6.70;;;6.00;;
48199;SDS011;33990;44.602;10.976;2023-08-24T11:37:25;8.50;;;6.25;;
48199;SDS011;33990;44.602;10.976;2023-08-24T11:39:52;7.43;;;6.10;;
48199;SDS011;33990;44.602;10.976;2023-08-24T11:42:20;8.15;;;6.60;;
48199;SDS011;33990;44.602;10.976;2023-08-24T11:44:48;9.50;;;6.65;;
48199;SDS011;33990;44.602;10.976;2023-08-24T11:47:16;9.18;;;6.38;;
48199;SDS011;33990;44.602;10.976;2023-08-24T11:49:50;10.10;;;6.57;;
48199;SDS011;33990;44.602;10.976;2023-08-24T11:52:17;11.35;;;6.35;;
48199;SDS011;33990;44.602;10.976;2023-08-24T11:54:45;9.40;;;6.18;;
48199;SDS011;33990;44.602;10.976;2023-08-24T11:57:13;8.27;;;5.85;;
48199;SDS011;33990;44.602;10.976;2023-08-24T11:59:40;7.88;;;6.13;;
48199;SDS011;33990;44.602;10.976;2023-08-24T12:02:08;8.50;;;5.32;;
48199;SDS011;33990;44.602;10.976;2023-08-24T12:04:38;7.10;;;6.40;;
48199;SDS011;33990;44.602;10.976;2023-08-24T12:07:10;7.85;;;5.85;;
48199;SDS011;33990;44.602;10.976;2023-08-24T12:10:01;5.45;;;4.78;;
48199;SDS011;33990;44.602;10.976;2023-08-24T12:12:29;9.18;;;5.72;;
48199;SDS011;33990;44.602;10.976;2023-08-24T12:14:57;6.55;;;5.22;;
48199;SDS011;33990;44.602;10.976;2023-08-24T12:17:26;7.47;;;5.43;;
48199;SDS011;33990;44.602;10.976;2023-08-24T12:19:57;5.75;;;5.15;;
48199;SDS011;33990;44.602;10.976;2023-08-24T12:22:27;7.82;;;5.40;;
48199;SDS011;33990;44.602;10.976;2023-08-24T12:24:56;8.25;;;5.50;;
48199;SDS011;33990;44.602;10.976;2023-08-24T12:27:24;6.82;;;5.80;;
48199;SDS011;33990;44.602;10.976;2023-08-24T12:29:59;5.80;;;5.30;;
48199;SDS011;33990;44.602;10.976;2023-08-24T12:32:41;6.30;;;5.70;;
48199;SDS011;33990;44.602;10.976;2023-08-24T12:35:14;5.60;;;4.72;;
48199;SDS011;33990;44.602;10.976;2023-08-24T12:37:42;7.38;;;5.15;;
48199;SDS011;33990;44.602;10.976;2023-08-24T12:40:09;6.80;;;4.85;;
48199;SDS011;33990;44.602;10.976;2023-08-24T12:42:39;7.68;;;5.30;;
48199;SDS011;33990;44.602;10.976;2023-08-24T12:45:06;5.78;;;5.05;;
48199;SDS011;33990;44.602;10.976;2023-08-24T12:47:35;8.52;;;5.70;;
48199;SDS011;33990;44.602;10.976;2023-08-24T12:50:05;7.15;;;5.55;;
48199;SDS011;33990;44.602;10.976;2023-08-24T12:52:33;7.10;;;5.00;;
48199;SDS011;33990;44.602;10.976;2023-08-24T12:55:01;6.72;;;5.50;;
48199;SDS011;33990;44.602;10.976;2023-08-24T12:57:28;6.80;;;5.05;;
48199;SDS011;33990;44.602;10.976;2023-08-24T12:59:56;6.05;;;5.10;;
48199;SDS011;33990;44.602;10.976;2023-08-24T13:02:25;5.90;;;5.03;;
48199;SDS011;33990;44.602;10.976;2023-08-24T13:05:04;5.82;;;4.43;;
48199;SDS011;33990;44.602;10.976;2023-08-24T13:07:33;5.80;;;4.63;;
48199;SDS011;33990;44.602;10.976;2023-08-24T13:10:02;7.40;;;4.70;;
48199;SDS011;33990;44.602;10.976;2023-08-24T13:12:31;5.63;;;4.47;;
48199;SDS011;33990;44.602;10.976;2023-08-24T13:14:59;5.43;;;4.57;;
48199;SDS011;33990;44.602;10.976;2023-08-24T13:17:26;6.05;;;4.82;;
48199;SDS011;33990;44.602;10.976;2023-08-24T13:19:54;5.18;;;4.68;;
48199;SDS011;33990;44.602;10.976;2023-08-24T13:22:21;5.53;;;4.78;;
48199;SDS011;33990;44.602;10.976;2023-08-24T13:24:49;5.75;;;4.53;;
48199;SDS011;33990;44.602;10.976;2023-08-24T13:27:16;7.28;;;4.60;;
48199;SDS011;33990;44.602;10.976;2023-08-24T13:29:44;5.07;;;4.40;;
48199;SDS011;33990;44.602;10.976;2023-08-24T13:32:11;5.80;;;4.93;;
48199;SDS011;33990;44.602;10.976;2023-08-24T13:34:38;5.45;;;4.22;;
48199;SDS011;33990;44.602;10.976;2023-08-24T13:37:06;5.35;;;4.65;;
48199;SDS011;33990;44.602;10.976;2023-08-24T13:39:33;7.00;;;4.72;;
48199;SDS011;33990;44.602;10.976;2023-08-24T13:42:01;6.40;;;4.50;;
48199;SDS011;33990;44.602;10.976;2023-08-24T13:44:28;5.55;;;4.20;;
48199;SDS011;33990;44.602;10.976;2023-08-24T13:46:56;5.65;;;5.05;;
48199;SDS011;33990;44.602;10.976;2023-08-24T13:49:23;7.97;;;5.38;;
48199;SDS011;33990;44.602;10.976;2023-08-24T13:52:06;5.68;;;4.50;;
48199;SDS011;33990;44.602;10.976;2023-08-24T13:54:34;6.03;;;4.30;;
48199;SDS011;33990;44.602;10.976;2023-08-24T13:57:01;4.38;;;3.97;;
48199;SDS011;33990;44.602;10.976;2023-08-24T13:59:29;6.32;;;4.78;;
48199;SDS011;33990;44.602;10.976;2023-08-24T14:01:56;9.00;;;5.30;;
48199;SDS011;33990;44.602;10.976;2023-08-24T14:04:24;4.40;;;4.00;;
48199;SDS011;33990;44.602;10.976;2023-08-24T14:06:51;6.07;;;4.28;;
48199;SDS011;33990;44.602;10.976;2023-08-24T14:09:18;5.35;;;4.35;;
48199;SDS011;33990;44.602;10.976;2023-08-24T14:11:46;5.53;;;4.30;;
48199;SDS011;33990;44.602;10.976;2023-08-24T14:14:14;4.57;;;3.92;;
48199;SDS011;33990;44.602;10.976;2023-08-24T14:16:42;5.63;;;4.13;;
48199;SDS011;33990;44.602;10.976;2023-08-24T14:19:09;4.55;;;4.15;;
48199;SDS011;33990;44.602;10.976;2023-08-24T14:21:36;6.20;;;4.53;;
48199;SDS011;33990;44.602;10.976;2023-08-24T14:24:11;6.65;;;4.78;;
48199;SDS011;33990;44.602;10.976;2023-08-24T14:26:38;4.28;;;3.88;;
48199;SDS011;33990;44.602;10.976;2023-08-24T14:29:12;4.32;;;3.92;;
48199;SDS011;33990;44.602;10.976;2023-08-24T14:31:41;5.60;;;4.45;;
48199;SDS011;33990;44.602;10.976;2023-08-24T14:34:08;6.75;;;4.40;;
48199;SDS011;33990;44.602;10.976;2023-08-24T14:36:35;5.90;;;4.00;;
48199;SDS011;33990;44.602;10.976;2023-08-24T14:39:03;4.97;;;4.25;;
48199;SDS011;33990;44.602;10.976;2023-08-24T14:41:30;5.50;;;4.75;;
48199;SDS011;33990;44.602;10.976;2023-08-24T14:43:59;6.25;;;4.47;;
48199;SDS011;33990;44.602;10.976;2023-08-24T14:46:26;5.30;;;4.22;;
48199;SDS011;33990;44.602;10.976;2023-08-24T14:48:54;4.70;;;4.05;;
48199;SDS011;33990;44.602;10.976;2023-08-24T14:51:21;4.60;;;4.03;;
48199;SDS011;33990;44.602;10.976;2023-08-24T14:53:49;6.55;;;4.32;;
48199;SDS011;33990;44.602;10.976;2023-08-24T14:56:16;5.43;;;4.25;;
48199;SDS011;33990;44.602;10.976;2023-08-24T14:58:43;5.05;;;4.25;;
48199;SDS011;33990;44.602;10.976;2023-08-24T15:01:11;5.18;;;4.25;;